首页
METAR-TAF:

METAR-TAF

机场 :

麦库姆, 密西西比州, 美国

纬度: 31-10-42N, 经度: 090-28-19W, 海拔: 126米

当前天气观测

该预报发布于53分钟前的23:53 UTC
静风
温度 25°C
湿度 50%
气压 1016 hPa
能見度: 16.1公里
天空无云

METAR: KMCB 052353Z AUTO 00000KT 10SM CLR 25/14 A3000 RMK AO2 SLP153 T02500144 10272 20250 55003

时间: 19:46 (00:46 UTC)

预报

该预报发布于1小时和14分钟前的23:32 UTC
预报有效从06日的 00点(UTC)到 06日的 24点(UTC)
风速节,风向
能見度: 10公里
少量云层高于5000英尺
散云层高于25000英尺
从 06日的 1100点(UTC)
风速节,风向
能見度: 4.8公里
少量云层高于8000英尺
散云层高于25000英尺
轻雾
从 06日的 1300点(UTC)
风速节,风向
能見度: 10公里
少量云层高于7000英尺
散云层高于25000英尺
从 06日的 1700点(UTC)
风速5节,风向南转南东
能見度: 10公里
少量云层高于4500英尺
散云层高于20000英尺

TAF: KMCB 052332Z 0600/0624 00000KT P6SM FEW050 SCT250 FM061100 00000KT 3SM BR FEW080 SCT250 FM061300 00000KT P6SM FEW070 SCT250 FM061700 16005KT P6SM FEW045 SCT200

超过4000个机场的气象观测和天气预报(METAR&TAF报告)。

可查询的气象台以黄色和红色小点在地图上表示。

将鼠标移到小点上方,可查看气象台名称。

然后点击查看天气观测和预报。

如需切换地图:点击带黑十字的绿色按钮放大地图;点击带横线的绿色按钮缩小地图;或者点击绿色箭头查看邻近地区的地图。


METAR-TAF: